ADDS METAR Data INFO
IDs: Format: Raw Decoded Include TAF

Data at: 1944 UTC 18 Feb 2018

KGBK 181935Z AUTO 12011KT 10SM FEW022 40/36 A3013 RMK A01
KGBK 181915Z AUTO 12009KT 10SM CLR 40/36 A3014 RMK A01
KGBK 181855Z AUTO 12007G14KT 10SM CLR 40/36 A3015 RMK A01
KGBK 181835Z AUTO 12009KT 10SM CLR 40/36 A3016 RMK A01
KGBK 181815Z AUTO 12009KT 10SM CLR 40/36 A3017 RMK A01
KGBK 181755Z AUTO 12012KT 10SM CLR 40/36 A3018 RMK A01
KGBK 181735Z AUTO 12009KT 10SM CLR 40/37 A3019 RMK A01
KGBK 181715Z AUTO 12008KT 10SM CLR 40/36 A3019 RMK A01
KGBK 181655Z AUTO 12007KT 10SM CLR 40/36 A3020 RMK A01
KGBK 181635Z AUTO 11005KT 10SM CLR 39/36 A3021 RMK A01
KGBK 181615Z AUTO 11005G19KT 10SM CLR 39/36 A3021 RMK A01
KGBK 181555Z AUTO 12007KT 10SM CLR 37/34 A3020 RMK A01
KGBK 181535Z AUTO 12008KT 10SM CLR 37/34 A3020 RMK A01
KGBK 181515Z AUTO 12007KT 10SM CLR 38/35 A3020 RMK A01
KGBK 181455Z AUTO 12007KT 10SM CLR 38/35 A3019 RMK A01
KGBK 181435Z AUTO VRB04KT 10SM CLR 38/35 A3019 RMK A01
KGBK 181415Z AUTO 11006KT 10SM CLR 37/35 A3018 RMK A01
KGBK 181355Z AUTO 11004KT CLR 36/34 A3018 RMK A01
KGBK 181335Z AUTO 13007KT 10SM CLR 36/35 A3017 RMK A01
KGBK 181315Z AUTO 14006KT 10SM CLR 37/35 A3017 RMK A01
KGBK 181255Z AUTO 15008KT 10SM CLR 37/35 A3017 RMK A01
KGBK 181235Z AUTO 15008KT 10SM CLR 37/36 A3016 RMK A01
KGBK 181215Z AUTO 13008KT 10SM CLR 38/37 A3015 RMK A01
KGBK 181155Z AUTO 13008KT 10SM CLR 39/38 A3015 RMK A01
KGBK 181135Z AUTO 13006KT 10SM CLR 39/37 A3014 RMK A01
KGBK 181115Z AUTO 15007KT 10SM CLR 39/38 A3014 RMK A01
KGBK 181055Z AUTO 15008KT 10SM CLR 39/38 A3014 RMK A01
KGBK 181035Z AUTO 15008KT 10SM CLR 40/38 A3013 RMK A01
KGBK 181015Z AUTO 14006KT 10SM CLR 40/39 A3013 RMK A01
KGBK 180950Z AUTO 15007KT 10SM CLR 40/39 A3013 RMK A01
KGBK 180935Z AUTO 16009KT 10SM CLR 41/40 A3013 RMK A01
KGBK 180915Z AUTO 16010KT 10SM CLR 42/40 A3013 RMK A01
KGBK 180855Z AUTO 16010KT 10SM CLR 42/41 A3013 RMK A01
KGBK 180835Z AUTO 15009KT 10SM CLR 43/41 A3013 RMK A01
KGBK 180815Z AUTO 15008KT 10SM CLR 42/41 A3014 RMK A01
KGBK 180755Z AUTO 14009KT 10SM CLR 43/41 A3014 RMK A01
KGBK 180735Z AUTO 15011KT 10SM CLR 44/42 A3014 RMK A01
KGBK 180715Z AUTO 15011KT 10SM CLR 46/44 A3013 RMK A01
KGBK 180655Z AUTO 14009G14KT 10SM CLR 43/41 A3013 RMK A01
KGBK 180635Z AUTO 13011KT 10SM CLR 40/39 A3013 RMK A01
KGBK 180610Z AUTO 12008KT 10SM CLR 45/43 A3014 RMK A01
KGBK 180555Z AUTO 11008KT 10SM CLR A3014 RMK A01
KGBK 180535Z AUTO 11008KT 10SM CLR A3015 RMK A01
KGBK 180515Z AUTO 12010KT 10SM CLR A3015 RMK A01
KGBK 180455Z AUTO 10008KT 10SM CLR A3016 RMK A01
KGBK 180435Z AUTO 09004KT 10SM CLR A3017 RMK A01
KGBK 180415Z AUTO 09005KT 10SM CLR A3018 RMK A01
KGBK 180355Z AUTO 10005KT 10SM CLR A3018 RMK A01
KGBK 180335Z AUTO 10009KT 10SM CLR A3018 RMK A01
KGBK 180315Z AUTO 10008KT 10SM CLR 53/49 A3018 RMK A01
KGBK 180255Z AUTO VRB04KT 10SM CLR A3018 RMK A01
KGBK 180235Z AUTO VRB04KT 10SM CLR A3018 RMK A01
KGBK 180215Z AUTO VRB04KT 10SM CLR A3017 RMK A01
KGBK 180155Z AUTO VRB04KT 10SM CLR A3017 RMK A01
KGBK 180135Z AUTO VRB03KT 10SM CLR A3017 RMK A01
KGBK 180115Z AUTO VRB04KT 10SM CLR A3017 RMK A01
KGBK 180055Z AUTO VRB05KT 10SM FEW029 A3016 RMK A01
KGBK 180035Z AUTO 09005KT 10SM FEW029 A3016 RMK A01
KGBK 180015Z AUTO VRB03KT 10SM CLR A3015 RMK A01
KGBK 172355Z AUTO 09004KT 7SM CLR A3015 RMK A01
KGBK 172335Z AUTO 00000KT 4SM HZ FEW025 A3014 RMK A01
KGBK 172315Z AUTO 00000KT 9SM CLR A3014 RMK A01
KGBK 172255Z AUTO 13004KT 10SM CLR A3014 RMK A01
KGBK 172235Z AUTO 14003KT 10SM CLR A3014 RMK A01
KGBK 172215Z AUTO 16005KT 10SM CLR /58 A3014 RMK A01
KGBK 172155Z AUTO 17004KT 10SM CLR /55 A3014 RMK A01
KGBK 172135Z AUTO 18004KT 10SM CLR 53/48 A3014 RMK A01
KGBK 172115Z AUTO 18006KT 10SM CLR 50/46 A3014 RMK A01
KGBK 172055Z AUTO 18008KT CLR 48/43 A3014 RMK A01
KGBK 172035Z AUTO 18008KT 10SM CLR 53/48 A3014 RMK A01
KGBK 172015Z AUTO 18010KT 10SM CLR 56/53 A3014 RMK A01
KGBK 171955Z AUTO 18009KT 10SM CLR /57 A3015 RMK A01
KGBK 171935Z AUTO 18009KT 10SM CLR A3015 RMK A01
KGBK 171915Z AUTO 18009KT 10SM FEW025 A3015 RMK A01
KGBK 171855Z AUTO 18009KT 10SM FEW025 A3016 RMK A01
KGBK 171835Z AUTO 18009KT 10SM CLR A3016 RMK A01
KGBK 171815Z AUTO 18010KT 10SM CLR A3017 RMK A01
KGBK 171755Z AUTO 18010KT 10SM CLR A3017 RMK A01
KGBK 171735Z AUTO 17013KT 10SM FEW020 A3017 RMK A01
KGBK 171715Z AUTO 16015KT 10SM SCT020 A3017 RMK A01
KGBK 171655Z AUTO 16017KT 10SM CLR A3016 RMK A01
KGBK 171635Z AUTO 16016KT 10SM CLR A3016 RMK A01
KGBK 171615Z AUTO 15017KT 10SM CLR A3016 RMK A01
KGBK 171555Z AUTO 15016KT 10SM CLR A3016 RMK A01
KGBK 171535Z AUTO 15015KT 10SM CLR A3015 RMK A01
KGBK 171515Z AUTO 15014KT 10SM CLR A3015 RMK A01
KGBK 171455Z AUTO 16015KT 10SM CLR A3015 RMK A01
KGBK 171435Z AUTO 15014KT 10SM CLR A3015 RMK A01
KGBK 171415Z AUTO 15014KT 10SM CLR A3014 RMK A01
KGBK 171355Z AUTO 15014KT 10SM CLR A3014 RMK A01
KGBK 171335Z AUTO 15015KT 10SM CLR A3014 RMK A01
KGBK 171315Z AUTO 15013KT 10SM CLR A3013 RMK A01
KGBK 171255Z AUTO 15014KT 10SM CLR 30/27 A3013 RMK A01
KGBK 171235Z AUTO 15014KT 10SM FEW055 27/25 A3013 RMK A01
KGBK 171215Z AUTO 15014KT 10SM SCT055 28/26 A3013 RMK A01
KGBK 171155Z AUTO 16013KT 10SM SCT050 31/29 A3012 RMK A01
KGBK 171135Z AUTO 16012KT 10SM SCT046 BKN055 27/25 A3012 RMK A01
KGBK 171115Z AUTO 16013KT 10SM BKN048 BKN055 27/25 A3011 RMK A01
KGBK 171055Z AUTO 15013KT 10SM SCT048 30/28 A3011 RMK A01
KGBK 171035Z AUTO 15013KT 10SM BKN048 30/28 A3011 RMK A01
KGBK 171015Z AUTO 15012KT 10SM BKN048 30/28 A3011 RMK A01
KGBK 170955Z AUTO 14011KT 10SM BKN044 BKN049 30/28 A3010 RMK A01
KGBK 170935Z AUTO 14009KT 10SM FEW029 BKN041 OVC046 30/28 A3010 RMK A01
KGBK 170915Z AUTO 14009KT 10SM FEW029 OVC044 30/29 A3011 RMK A01
KGBK 170855Z AUTO 13012KT 10SM OVC043 31/29 A3011 RMK A01
KGBK 170835Z AUTO 14010KT 10SM FEW014 OVC041 31/29 A3011 RMK A01
KGBK 170815Z AUTO 14009KT 10SM OVC040 30/29 A3011 RMK A01
KGBK 170755Z AUTO 14009KT 10SM BKN041 31/30 A3012 RMK A01